Terminal Aerodrome Forecast
Issued by NWS Tampa Bay Area, FL

Home | Current Version | Previous Version | Text Only | Print | Product List | Glossary On
Versions: 1 2 3 4 5 6 7 8 9 10 11 12 13 14 15
000
FTUS42 KTBW 042354
TAFFMY
TAF
KFMY 042354Z 0500/0524 30007KT P6SM FEW050 SCT250
     FM050200 VRB04KT P6SM FEW025 FEW250
     FM051600 23007KT P6SM VCTS SCT040CB SCT200=

USA.gov is the U.S. government's official web portal to all federal, state and local government web resources and services.